Time;durP1;ratioP1;P1;durP2;ratioP2;P2;SDS_P1;SDS_P2;PMS_P1;PMS_P2;Temp;Humidity;BMP_temperature;BMP_pressure;BME280_temperature;BME280_humidity;BME280_pressure;Samples;Min_cycle;Max_cycle;Signal;HPM_P1;HPM_P2
2023/09/16 00:01:41;;;;;;;2.70;2.50;;;;;;;;;;5076856;28;20213;-65
2023/09/16 00:04:08;;;;;;;3.20;2.60;;;;;;;;;;5079613;28;20209;-65
2023/09/16 00:06:35;;;;;;;2.67;2.47;;;;;;;;;;5078481;28;20224;-64
2023/09/16 00:09:04;;;;;;;3.25;2.63;;;;;;;;;;5075199;28;20209;-65
2023/09/16 00:11:32;;;;;;;3.50;2.67;;;;;;;;;;5081775;28;20202;-65
2023/09/16 00:13:59;;;;;;;4.22;2.75;;;;;;;;;;5080910;28;20204;-65
2023/09/16 00:16:26;;;;;;;3.00;2.70;;;;;;;;;;5085677;28;20199;-65
2023/09/16 00:18:53;;;;;;;2.50;2.40;;;;;;;;;;5086953;28;20198;-65
2023/09/16 00:21:20;;;;;;;2.80;2.40;;;;;;;;;;5081651;28;20209;-65
2023/09/16 00:23:48;;;;;;;2.97;2.63;;;;;;;;;;5085691;28;20206;-65
2023/09/16 00:26:16;;;;;;;4.20;2.85;;;;;;;;;;5083156;28;20222;-65
2023/09/16 00:28:43;;;;;;;4.13;2.50;;;;;;;;;;5078048;28;20238;-66
2023/09/16 00:31:11;;;;;;;2.80;2.60;;;;;;;;;;5084059;28;20213;-65
2023/09/16 00:33:39;;;;;;;2.67;2.55;;;;;;;;;;5081534;28;20228;-65
2023/09/16 00:36:06;;;;;;;2.95;2.60;;;;;;;;;;5084495;28;20248;-65
2023/09/16 00:38:33;;;;;;;2.95;2.50;;;;;;;;;;5085938;28;20206;-65
2023/09/16 00:41:00;;;;;;;2.90;2.70;;;;;;;;;;5084719;28;20206;-65
2023/09/16 00:43:29;;;;;;;3.75;2.83;;;;;;;;;;5080437;28;20213;-65
2023/09/16 00:45:56;;;;;;;3.17;2.88;;;;;;;;;;5077413;28;20206;-66
2023/09/16 00:48:24;;;;;;;2.97;2.78;;;;;;;;;;5083617;28;20207;-65
2023/09/16 00:50:51;;;;;;;2.63;2.50;;;;;;;;;;5085373;28;20198;-70
2023/09/16 00:53:19;;;;;;;3.05;2.70;;;;;;;;;;5079217;28;20209;-70
2023/09/16 00:55:47;;;;;;;3.42;2.45;;;;;;;;;;5082154;28;20330;-70
2023/09/16 00:58:17;;;;;;;2.83;2.58;;;;;;;;;;5077394;28;20217;-70
2023/09/16 01:00:46;;;;;;;3.53;2.95;;;;;;;;;;5080322;28;20238;-70
2023/09/16 01:03:13;;;;;;;3.17;2.83;;;;;;;;;;5078411;28;20202;-70
2023/09/16 01:05:40;;;;;;;2.88;2.67;;;;;;;;;;5089622;28;20293;-70
2023/09/16 01:08:10;;;;;;;2.90;2.70;;;;;;;;;;5083505;28;20260;-70
2023/09/16 01:10:40;;;;;;;2.90;2.70;;;;;;;;;;5082259;28;20214;-70
2023/09/16 01:13:07;;;;;;;3.00;2.70;;;;;;;;;;5081959;28;20203;-70
2023/09/16 01:15:36;;;;;;;3.05;2.83;;;;;;;;;;5083200;28;20202;-70
2023/09/16 01:18:08;;;;;;;2.97;2.78;;;;;;;;;;5082108;28;20245;-70
2023/09/16 01:20:38;;;;;;;3.05;2.85;;;;;;;;;;5082772;28;20206;-70
2023/09/16 01:23:06;;;;;;;3.10;2.75;;;;;;;;;;5083802;28;20241;-70
2023/09/16 01:25:34;;;;;;;3.22;2.75;;;;;;;;;;5083776;28;20210;-70
2023/09/16 01:28:01;;;;;;;2.88;2.67;;;;;;;;;;5088715;28;20198;-71
2023/09/16 01:30:30;;;;;;;3.13;2.83;;;;;;;;;;5077028;28;20238;-70
2023/09/16 01:32:59;;;;;;;3.25;2.90;;;;;;;;;;5079596;28;20278;-70
2023/09/16 01:35:29;;;;;;;3.28;2.97;;;;;;;;;;5083026;28;20208;-71
2023/09/16 01:37:57;;;;;;;3.35;3.10;;;;;;;;;;5081205;28;20195;-70
2023/09/16 01:40:24;;;;;;;4.38;3.08;;;;;;;;;;5083578;28;20195;-70
2023/09/16 01:42:53;;;;;;;3.15;2.95;;;;;;;;;;5084639;28;20198;-70
2023/09/16 01:45:20;;;;;;;3.10;2.90;;;;;;;;;;5079524;28;20209;-69
2023/09/16 01:47:48;;;;;;;3.40;3.10;;;;;;;;;;5078617;28;20219;-71
2023/09/16 01:50:15;;;;;;;3.28;2.97;;;;;;;;;;5081878;28;20202;-70
2023/09/16 01:52:42;;;;;;;3.25;2.90;;;;;;;;;;5081220;28;20203;-70
2023/09/16 01:55:10;;;;;;;3.10;2.90;;;;;;;;;;5084638;28;20199;-71
2023/09/16 01:57:37;;;;;;;2.97;2.75;;;;;;;;;;5079247;28;20195;-71
2023/09/16 02:00:07;;;;;;;3.30;3.10;;;;;;;;;;5083053;28;20202;-70
2023/09/16 02:02:34;;;;;;;3.50;2.88;;;;;;;;;;5081841;28;20225;-70
2023/09/16 02:05:01;;;;;;;3.83;3.10;;;;;;;;;;5078020;28;20232;-71
2023/09/16 02:07:28;;;;;;;3.28;2.90;;;;;;;;;;5081953;28;20218;-71
2023/09/16 02:09:55;;;;;;;3.20;2.90;;;;;;;;;;5086095;28;20213;-70
2023/09/16 02:12:23;;;;;;;2.90;2.70;;;;;;;;;;5080525;28;20198;-70
2023/09/16 02:14:51;;;;;;;3.08;2.88;;;;;;;;;;5080794;28;20214;-71
2023/09/16 02:17:19;;;;;;;3.08;2.85;;;;;;;;;;5076940;28;20199;-71
2023/09/16 02:19:47;;;;;;;3.47;2.90;;;;;;;;;;5080904;28;20203;-71
2023/09/16 02:22:14;;;;;;;3.25;2.95;;;;;;;;;;5081648;28;20266;-70
2023/09/16 02:24:42;;;;;;;3.75;3.00;;;;;;;;;;5080134;28;20212;-71
2023/09/16 02:27:09;;;;;;;2.80;2.60;;;;;;;;;;5077735;28;20222;-71
2023/09/16 02:29:36;;;;;;;3.17;2.97;;;;;;;;;;5084402;28;20245;-70
2023/09/16 02:32:03;;;;;;;3.17;2.97;;;;;;;;;;5082021;28;20221;-71
2023/09/16 02:34:33;;;;;;;5.07;3.50;;;;;;;;;;5082812;28;20209;-70
2023/09/16 02:37:00;;;;;;;3.17;2.90;;;;;;;;;;5080562;28;20194;-71
2023/09/16 02:39:27;;;;;;;4.05;3.22;;;;;;;;;;5079356;28;20203;-71
2023/09/16 02:41:54;;;;;;;3.22;2.90;;;;;;;;;;5080461;28;20199;-71
2023/09/16 02:44:21;;;;;;;4.20;3.10;;;;;;;;;;5078768;28;20222;-71
2023/09/16 02:46:48;;;;;;;3.20;3.00;;;;;;;;;;5079253;28;20237;-71
2023/09/16 02:49:15;;;;;;;3.22;2.92;;;;;;;;;;5080416;28;20210;-71
2023/09/16 02:51:44;;;;;;;3.05;2.85;;;;;;;;;;5080720;28;20191;-70
2023/09/16 02:54:11;;;;;;;3.20;2.95;;;;;;;;;;5083234;28;20194;-71
2023/09/16 02:56:38;;;;;;;3.15;2.95;;;;;;;;;;5081998;28;20206;-71
2023/09/16 02:59:05;;;;;;;3.45;3.15;;;;;;;;;;5078166;28;20203;-71
2023/09/16 03:01:32;;;;;;;3.30;3.10;;;;;;;;;;5077654;28;20198;-70
2023/09/16 03:04:00;;;;;;;3.63;3.33;;;;;;;;;;5078064;28;20259;-71
2023/09/16 03:06:27;;;;;;;3.35;3.15;;;;;;;;;;5080664;28;20226;-71
2023/09/16 03:08:55;;;;;;;3.10;2.90;;;;;;;;;;5079630;28;20195;-71
2023/09/16 03:11:22;;;;;;;3.40;2.95;;;;;;;;;;5086828;28;20210;-66
2023/09/16 03:13:50;;;;;;;2.88;2.65;;;;;;;;;;5080224;28;20224;-65
2023/09/16 03:16:18;;;;;;;3.40;3.10;;;;;;;;;;5080170;28;20277;-65
2023/09/16 03:18:46;;;;;;;3.30;3.00;;;;;;;;;;5081105;28;20198;-66
2023/09/16 03:21:14;;;;;;;3.00;2.80;;;;;;;;;;5080701;28;20202;-66
2023/09/16 03:23:41;;;;;;;3.25;3.05;;;;;;;;;;5079239;28;20210;-65
2023/09/16 03:26:10;;;;;;;3.60;3.30;;;;;;;;;;5077743;28;20195;-65
2023/09/16 03:28:37;;;;;;;3.42;3.13;;;;;;;;;;5076774;28;20268;-65
2023/09/16 03:31:04;;;;;;;4.38;3.42;;;;;;;;;;5078594;28;20225;-65
2023/09/16 03:33:31;;;;;;;3.25;3.05;;;;;;;;;;5080692;28;20611;-65
2023/09/16 03:35:58;;;;;;;4.15;3.35;;;;;;;;;;5080058;28;20236;-65
2023/09/16 03:38:31;;;;;;;3.30;3.10;;;;;;;;;;5083316;28;20199;-65
2023/09/16 03:40:59;;;;;;;3.20;3.00;;;;;;;;;;5079555;28;20202;-65
2023/09/16 03:43:27;;;;;;;3.13;2.83;;;;;;;;;;5081280;28;20221;-65
2023/09/16 03:45:55;;;;;;;3.15;2.95;;;;;;;;;;5081845;28;20201;-65
2023/09/16 03:48:22;;;;;;;3.20;3.00;;;;;;;;;;5080941;28;20222;-65
2023/09/16 03:50:49;;;;;;;3.40;3.10;;;;;;;;;;5071781;28;20202;-65
2023/09/16 03:53:18;;;;;;;3.30;3.10;;;;;;;;;;5077310;28;20202;-65
2023/09/16 03:55:46;;;;;;;3.72;3.20;;;;;;;;;;5077024;28;20199;-65
2023/09/16 03:58:13;;;;;;;3.15;2.95;;;;;;;;;;5080098;28;20211;-65
2023/09/16 04:00:41;;;;;;;3.63;3.33;;;;;;;;;;5076370;28;20203;-65
2023/09/16 04:03:09;;;;;;;3.50;3.20;;;;;;;;;;5079146;28;20202;-65
2023/09/16 04:05:36;;;;;;;3.45;3.15;;;;;;;;;;5080458;28;20286;-65
2023/09/16 04:08:03;;;;;;;3.70;3.15;;;;;;;;;;5075828;28;20293;-65
2023/09/16 04:10:30;;;;;;;3.30;3.10;;;;;;;;;;5075346;28;20203;-65
2023/09/16 04:12:57;;;;;;;3.42;3.20;;;;;;;;;;5076734;28;20201;-65
2023/09/16 04:15:24;;;;;;;4.25;3.05;;;;;;;;;;5075965;28;20204;-66
2023/09/16 04:17:53;;;;;;;3.42;3.20;;;;;;;;;;5078985;28;20204;-66
2023/09/16 04:20:20;;;;;;;3.60;3.30;;;;;;;;;;5075754;28;20199;-66
2023/09/16 04:22:47;;;;;;;3.78;3.05;;;;;;;;;;5077802;28;20446;-65
2023/09/16 04:25:14;;;;;;;3.55;3.30;;;;;;;;;;5079806;28;20198;-66
2023/09/16 04:27:41;;;;;;;3.70;3.40;;;;;;;;;;5078679;28;20220;-65
2023/09/16 04:30:09;;;;;;;4.22;3.30;;;;;;;;;;5084658;28;20226;-67
2023/09/16 04:32:36;;;;;;;3.60;3.30;;;;;;;;;;5078982;28;20199;-66
2023/09/16 04:35:05;;;;;;;3.25;3.05;;;;;;;;;;5080578;28;20206;-69
2023/09/16 04:37:32;;;;;;;3.67;3.40;;;;;;;;;;5075832;28;20202;-70
2023/09/16 04:39:59;;;;;;;3.80;3.50;;;;;;;;;;5078528;28;20209;-67
2023/09/16 04:42:29;;;;;;;3.25;3.05;;;;;;;;;;5077272;28;20213;-68
2023/09/16 04:44:58;;;;;;;3.60;3.30;;;;;;;;;;5079648;28;20210;-67
2023/09/16 04:47:25;;;;;;;3.47;3.10;;;;;;;;;;5079888;28;20294;-68
2023/09/16 04:49:52;;;;;;;3.47;3.17;;;;;;;;;;5083322;28;20281;-68
2023/09/16 04:52:21;;;;;;;3.25;2.95;;;;;;;;;;5077781;28;20206;-66
2023/09/16 04:54:48;;;;;;;3.45;3.15;;;;;;;;;;5078811;28;20367;-66
2023/09/16 04:57:15;;;;;;;3.70;3.40;;;;;;;;;;5078466;28;20210;-65
2023/09/16 04:59:45;;;;;;;3.83;3.42;;;;;;;;;;5087659;28;21073;-66
2023/09/16 05:02:12;;;;;;;4.10;3.53;;;;;;;;;;5081767;28;20210;-65
2023/09/16 05:04:39;;;;;;;3.47;3.17;;;;;;;;;;5075921;28;20205;-65
2023/09/16 05:07:07;;;;;;;3.38;3.08;;;;;;;;;;5081740;28;20218;-66
2023/09/16 05:09:35;;;;;;;3.20;3.00;;;;;;;;;;5080744;28;20289;-66
2023/09/16 05:12:03;;;;;;;4.38;3.63;;;;;;;;;;5079211;28;20218;-65
2023/09/16 05:14:30;;;;;;;3.50;3.20;;;;;;;;;;5084756;28;20261;-65
2023/09/16 05:16:57;;;;;;;3.92;3.60;;;;;;;;;;5079089;28;20309;-65
2023/09/16 05:19:24;;;;;;;3.95;3.30;;;;;;;;;;5087230;28;20211;-65
2023/09/16 05:21:51;;;;;;;4.60;3.60;;;;;;;;;;5086680;28;20210;-65
2023/09/16 05:24:18;;;;;;;3.80;3.50;;;;;;;;;;5081760;28;20213;-67
2023/09/16 05:26:46;;;;;;;3.63;3.33;;;;;;;;;;5083647;28;20204;-66
2023/09/16 05:29:14;;;;;;;4.80;3.33;;;;;;;;;;5079043;28;20269;-65
2023/09/16 05:31:41;;;;;;;3.78;3.35;;;;;;;;;;5085981;28;20206;-65
2023/09/16 05:34:08;;;;;;;3.42;3.13;;;;;;;;;;5088887;28;20198;-66
2023/09/16 05:36:35;;;;;;;3.50;3.28;;;;;;;;;;5091416;28;20194;-66
2023/09/16 05:39:02;;;;;;;3.88;3.58;;;;;;;;;;5078680;28;20195;-66
2023/09/16 05:41:29;;;;;;;4.10;3.70;;;;;;;;;;5073135;28;20222;-65
2023/09/16 05:43:58;;;;;;;3.60;3.30;;;;;;;;;;5076179;28;20197;-65
2023/09/16 05:46:25;;;;;;;3.75;3.40;;;;;;;;;;5078537;28;20224;-66
2023/09/16 05:48:56;;;;;;;3.38;3.08;;;;;;;;;;5079037;28;20317;-66
2023/09/16 05:51:23;;;;;;;3.60;3.30;;;;;;;;;;5081520;28;20206;-65
2023/09/16 05:53:50;;;;;;;3.58;3.33;;;;;;;;;;5086764;28;20198;-67
2023/09/16 05:56:17;;;;;;;3.40;3.10;;;;;;;;;;5082657;28;20210;-65
2023/09/16 05:58:44;;;;;;;3.95;3.40;;;;;;;;;;5078815;28;20208;-65
2023/09/16 06:01:13;;;;;;;4.35;3.72;;;;;;;;;;5078487;28;20207;-66
2023/09/16 06:03:40;;;;;;;4.30;3.90;;;;;;;;;;5074568;28;20206;-65
2023/09/16 06:06:07;;;;;;;4.20;3.60;;;;;;;;;;5079576;28;20222;-65
2023/09/16 06:08:34;;;;;;;3.90;3.60;;;;;;;;;;5074881;28;20214;-66
2023/09/16 06:11:01;;;;;;;4.07;3.67;;;;;;;;;;5080255;28;20213;-65
2023/09/16 06:13:28;;;;;;;3.92;3.63;;;;;;;;;;5077283;28;20211;-65
2023/09/16 06:15:55;;;;;;;3.90;3.60;;;;;;;;;;5084384;28;20214;-65
2023/09/16 06:18:24;;;;;;;3.92;3.55;;;;;;;;;;5081619;28;20198;-66
2023/09/16 06:20:51;;;;;;;3.67;3.40;;;;;;;;;;5077336;28;20205;-66
2023/09/16 06:23:18;;;;;;;3.42;3.22;;;;;;;;;;5084379;28;20217;-66
2023/09/16 06:25:45;;;;;;;5.30;3.58;;;;;;;;;;5082878;28;20207;-66
2023/09/16 06:28:12;;;;;;;5.30;3.78;;;;;;;;;;5086460;28;20226;-66
2023/09/16 06:30:39;;;;;;;4.72;4.20;;;;;;;;;;5079568;28;20211;-67
2023/09/16 06:33:06;;;;;;;4.15;3.10;;;;;;;;;;5079176;28;20228;-66
2023/09/16 06:35:35;;;;;;;4.78;3.55;;;;;;;;;;5073964;28;20210;-67
2023/09/16 06:38:02;;;;;;;3.75;3.25;;;;;;;;;;5079525;28;21670;-66
2023/09/16 06:40:29;;;;;;;3.90;3.45;;;;;;;;;;5080652;28;20207;-66
2023/09/16 06:42:56;;;;;;;3.63;3.33;;;;;;;;;;5079862;28;20198;-66
2023/09/16 06:45:23;;;;;;;3.65;3.35;;;;;;;;;;5080580;28;20216;-66
2023/09/16 06:47:50;;;;;;;3.63;3.33;;;;;;;;;;5080334;28;20213;-65
2023/09/16 06:50:17;;;;;;;3.40;3.20;;;;;;;;;;5077174;28;20203;-65
2023/09/16 06:52:46;;;;;;;3.72;3.42;;;;;;;;;;5077820;28;20209;-66
2023/09/16 06:55:13;;;;;;;3.70;3.40;;;;;;;;;;5081916;28;20201;-65
2023/09/16 06:57:40;;;;;;;3.47;3.28;;;;;;;;;;5075370;28;20210;-66
2023/09/16 07:00:08;;;;;;;3.72;3.42;;;;;;;;;;5077623;28;20214;-65
2023/09/16 07:02:36;;;;;;;4.05;3.30;;;;;;;;;;5071844;28;20202;-65
2023/09/16 07:05:03;;;;;;;3.88;3.58;;;;;;;;;;5080267;28;20218;-65
2023/09/16 07:07:30;;;;;;;4.32;3.75;;;;;;;;;;5078028;28;20210;-65
2023/09/16 07:09:59;;;;;;;4.05;3.65;;;;;;;;;;5074174;28;21503;-65
2023/09/16 07:12:26;;;;;;;4.13;3.60;;;;;;;;;;5076373;28;20540;-64
2023/09/16 07:14:53;;;;;;;4.18;3.75;;;;;;;;;;5073572;28;20207;-64
2023/09/16 07:17:20;;;;;;;4.40;3.80;;;;;;;;;;5076109;28;20206;-64
2023/09/16 07:19:47;;;;;;;4.15;3.78;;;;;;;;;;5077072;28;20399;-64
2023/09/16 07:22:14;;;;;;;8.40;4.00;;;;;;;;;;5076243;28;20203;-65
2023/09/16 07:24:42;;;;;;;8.60;4.38;;;;;;;;;;5073042;28;20202;-65
2023/09/16 07:27:11;;;;;;;6.65;4.30;;;;;;;;;;5076004;28;20221;-65
2023/09/16 07:29:39;;;;;;;4.03;3.72;;;;;;;;;;5076270;28;20357;-66
2023/09/16 07:32:06;;;;;;;4.55;4.15;;;;;;;;;;5073898;28;20203;-66
2023/09/16 07:34:33;;;;;;;4.35;3.90;;;;;;;;;;5070578;28;20203;-65
2023/09/16 07:37:01;;;;;;;6.63;4.50;;;;;;;;;;5077266;28;20285;-65
2023/09/16 07:39:28;;;;;;;5.15;4.30;;;;;;;;;;5079083;28;20206;-65
2023/09/16 07:41:55;;;;;;;5.43;3.83;;;;;;;;;;5071457;28;20205;-65
2023/09/16 07:44:24;;;;;;;3.95;3.60;;;;;;;;;;5076321;28;20206;-65
2023/09/16 07:46:51;;;;;;;8.15;3.80;;;;;;;;;;5078084;28;20214;-64
2023/09/16 07:49:18;;;;;;;4.10;3.80;;;;;;;;;;5073535;28;20222;-64
2023/09/16 07:51:46;;;;;;;3.90;3.60;;;;;;;;;;5075557;28;20201;-65
2023/09/16 07:54:14;;;;;;;4.57;3.75;;;;;;;;;;5076362;28;20209;-65
2023/09/16 07:56:41;;;;;;;3.90;3.60;;;;;;;;;;5077730;28;20219;-65
2023/09/16 07:59:09;;;;;;;3.42;3.13;;;;;;;;;;5078461;28;20197;-64
2023/09/16 08:01:37;;;;;;;3.55;3.25;;;;;;;;;;5076111;28;20207;-64
2023/09/16 08:04:04;;;;;;;3.72;3.42;;;;;;;;;;5070394;28;20218;-64
2023/09/16 08:06:31;;;;;;;4.38;3.40;;;;;;;;;;5074999;28;20234;-64
2023/09/16 08:08:59;;;;;;;3.75;3.45;;;;;;;;;;5073348;28;20215;-64
2023/09/16 08:11:26;;;;;;;4.95;3.65;;;;;;;;;;5075805;28;20251;-63
2023/09/16 08:13:53;;;;;;;3.60;3.30;;;;;;;;;;5073929;28;20199;-63
2023/09/16 08:16:20;;;;;;;3.75;3.40;;;;;;;;;;5072932;28;20209;-64
2023/09/16 08:18:49;;;;;;;4.03;3.63;;;;;;;;;;5070603;28;20198;-63
2023/09/16 08:21:16;;;;;;;3.78;3.42;;;;;;;;;;5076058;28;20212;-63
2023/09/16 08:23:43;;;;;;;3.92;3.30;;;;;;;;;;5076418;28;20211;-63
2023/09/16 08:26:10;;;;;;;4.45;4.15;;;;;;;;;;5070839;28;20195;-64
2023/09/16 08:28:37;;;;;;;4.22;3.80;;;;;;;;;;5075330;28;20234;-63
2023/09/16 08:31:04;;;;;;;3.88;3.58;;;;;;;;;;5077598;28;20205;-63
2023/09/16 08:33:31;;;;;;;4.00;3.70;;;;;;;;;;5076847;28;20202;-63
2023/09/16 08:36:00;;;;;;;4.10;3.80;;;;;;;;;;5078261;28;20238;-63
2023/09/16 08:38:27;;;;;;;3.70;3.40;;;;;;;;;;5077439;28;20203;-63
2023/09/16 08:40:57;;;;;;;5.07;3.70;;;;;;;;;;5081371;28;20208;-63
2023/09/16 08:43:27;;;;;;;3.85;3.58;;;;;;;;;;5081097;28;20203;-63
2023/09/16 08:45:57;;;;;;;4.10;3.65;;;;;;;;;;5077258;28;20213;-64
2023/09/16 08:48:27;;;;;;;3.95;3.65;;;;;;;;;;5077160;28;20222;-64
2023/09/16 08:50:55;;;;;;;4.03;3.42;;;;;;;;;;5080743;28;20206;-63
2023/09/16 08:53:26;;;;;;;3.70;3.40;;;;;;;;;;5077216;28;20206;-62
2023/09/16 08:55:55;;;;;;;4.03;3.72;;;;;;;;;;5079454;28;20198;-62
2023/09/16 08:58:22;;;;;;;3.92;3.63;;;;;;;;;;5082768;28;20245;-62
2023/09/16 09:00:50;;;;;;;4.00;3.70;;;;;;;;;;5081403;28;20203;-64
2023/09/16 09:03:17;;;;;;;4.30;3.75;;;;;;;;;;5078915;28;20206;-62
2023/09/16 09:05:45;;;;;;;4.40;4.00;;;;;;;;;;5078810;28;20214;-62
2023/09/16 09:08:12;;;;;;;4.32;3.92;;;;;;;;;;5078514;28;20224;-63
2023/09/16 09:10:41;;;;;;;3.95;3.65;;;;;;;;;;5083760;28;20202;-63
2023/09/16 09:13:13;;;;;;;3.75;3.45;;;;;;;;;;5078919;28;20262;-63
2023/09/16 09:15:41;;;;;;;3.83;3.53;;;;;;;;;;5080231;28;20203;-62
2023/09/16 09:18:08;;;;;;;3.53;3.22;;;;;;;;;;5076246;28;20203;-63
2023/09/16 09:20:36;;;;;;;4.00;3.70;;;;;;;;;;5075759;28;20203;-63
2023/09/16 09:23:03;;;;;;;4.78;3.92;;;;;;;;;;5076942;28;20203;-64
2023/09/16 09:25:31;;;;;;;4.88;3.90;;;;;;;;;;5079718;28;20201;-64
2023/09/16 09:27:59;;;;;;;3.67;3.38;;;;;;;;;;5075767;28;20207;-63
2023/09/16 09:30:27;;;;;;;3.33;3.10;;;;;;;;;;5079057;28;20234;-66
2023/09/16 09:32:56;;;;;;;3.70;3.40;;;;;;;;;;5077537;28;20228;-66
2023/09/16 09:35:23;;;;;;;3.95;3.30;;;;;;;;;;5077305;28;20199;-66
2023/09/16 09:37:51;;;;;;;3.90;3.60;;;;;;;;;;5079815;28;20229;-66
2023/09/16 09:40:18;;;;;;;3.92;3.63;;;;;;;;;;5080846;28;20236;-67
2023/09/16 09:42:46;;;;;;;4.40;3.95;;;;;;;;;;5079992;28;20199;-66
2023/09/16 09:45:15;;;;;;;4.00;3.70;;;;;;;;;;5078505;28;20233;-65
2023/09/16 09:47:42;;;;;;;3.40;3.20;;;;;;;;;;5078810;28;20202;-65
2023/09/16 09:50:12;;;;;;;3.60;3.30;;;;;;;;;;5079757;28;20219;-65
2023/09/16 09:52:39;;;;;;;3.72;3.40;;;;;;;;;;5081220;28;20206;-66
2023/09/16 09:55:07;;;;;;;3.60;3.35;;;;;;;;;;5081092;28;20203;-66
2023/09/16 09:57:34;;;;;;;3.63;3.30;;;;;;;;;;5076338;28;20209;-65
2023/09/16 10:00:01;;;;;;;3.75;3.25;;;;;;;;;;5077846;28;20235;-66
2023/09/16 10:02:30;;;;;;;3.95;3.65;;;;;;;;;;5078883;28;20201;-66
2023/09/16 10:04:58;;;;;;;3.83;3.53;;;;;;;;;;5079957;28;20203;-66
2023/09/16 10:07:26;;;;;;;5.43;3.67;;;;;;;;;;5080865;28;20207;-66
2023/09/16 10:09:53;;;;;;;3.38;3.17;;;;;;;;;;5085281;28;20251;-65
2023/09/16 10:12:20;;;;;;;5.07;3.33;;;;;;;;;;5079668;28;20260;-66
2023/09/16 10:14:48;;;;;;;3.45;3.08;;;;;;;;;;5074687;28;20202;-65
2023/09/16 10:17:15;;;;;;;3.30;3.00;;;;;;;;;;5079283;28;20214;-66
2023/09/16 10:19:44;;;;;;;3.33;3.10;;;;;;;;;;5078550;28;20194;-65
2023/09/16 10:22:11;;;;;;;3.33;3.08;;;;;;;;;;5078101;28;20202;-69
2023/09/16 10:24:40;;;;;;;4.50;3.03;;;;;;;;;;5076570;28;20199;-69
2023/09/16 10:27:10;;;;;;;6.25;3.33;;;;;;;;;;5080679;28;20213;-69
2023/09/16 10:29:38;;;;;;;3.38;3.05;;;;;;;;;;5082948;28;20234;-69
2023/09/16 10:32:07;;;;;;;3.53;3.10;;;;;;;;;;5087555;28;20198;-69
2023/09/16 10:34:34;;;;;;;3.88;3.38;;;;;;;;;;5079775;28;20206;-69
2023/09/16 10:37:03;;;;;;;5.18;3.15;;;;;;;;;;5082664;28;20210;-69
2023/09/16 10:39:33;;;;;;;4.53;3.22;;;;;;;;;;5073618;28;20194;-68
2023/09/16 10:42:01;;;;;;;3.28;3.03;;;;;;;;;;5078091;28;20202;-69
2023/09/16 10:44:30;;;;;;;3.80;3.17;;;;;;;;;;5092916;28;20209;-68
2023/09/16 10:46:58;;;;;;;4.13;3.33;;;;;;;;;;5081731;28;20202;-68
2023/09/16 10:49:25;;;;;;;4.60;3.20;;;;;;;;;;5080993;28;20234;-68
2023/09/16 10:51:54;;;;;;;4.38;3.22;;;;;;;;;;5078841;28;20202;-68
2023/09/16 10:54:28;;;;;;;3.53;3.20;;;;;;;;;;5076863;28;20217;-68
2023/09/16 10:56:57;;;;;;;3.38;3.13;;;;;;;;;;5080461;28;20205;-68
2023/09/16 10:59:28;;;;;;;4.32;3.30;;;;;;;;;;5077379;28;20230;-68
2023/09/16 11:01:57;;;;;;;3.72;3.28;;;;;;;;;;5086609;28;20212;-68
2023/09/16 11:04:25;;;;;;;3.42;3.22;;;;;;;;;;5081767;28;20237;-68
2023/09/16 11:06:52;;;;;;;5.13;3.20;;;;;;;;;;5086147;28;20286;-67
2023/09/16 11:09:20;;;;;;;4.60;3.10;;;;;;;;;;5078867;28;20221;-67
2023/09/16 11:11:49;;;;;;;3.55;3.25;;;;;;;;;;5075868;28;20202;-67
2023/09/16 11:14:17;;;;;;;3.40;3.10;;;;;;;;;;5076929;28;20274;-67
2023/09/16 11:16:45;;;;;;;4.03;3.40;;;;;;;;;;5079501;28;20207;-67
2023/09/16 11:19:15;;;;;;;4.57;3.65;;;;;;;;;;5074998;28;20198;-67
2023/09/16 11:21:43;;;;;;;4.05;3.75;;;;;;;;;;5075665;28;20209;-67
2023/09/16 11:24:10;;;;;;;4.22;3.60;;;;;;;;;;5075650;28;20207;-67
2023/09/16 11:26:38;;;;;;;3.88;3.58;;;;;;;;;;5080395;28;20448;-68
2023/09/16 11:29:17;;;;;;;4.00;3.60;;;;;;;;;;5075290;28;20333;-67
2023/09/16 11:31:44;;;;;;;3.60;3.30;;;;;;;;;;5083544;28;20214;-67
2023/09/16 11:34:12;;;;;;;3.97;3.67;;;;;;;;;;5077387;28;20230;-67
2023/09/16 11:36:43;;;;;;;7.13;4.20;;;;;;;;;;5082700;28;20292;-67
2023/09/16 11:39:15;;;;;;;4.80;4.40;;;;;;;;;;5071325;28;20256;-67
2023/09/16 11:41:42;;;;;;;4.57;4.18;;;;;;;;;;5079973;28;20212;-67
2023/09/16 11:44:09;;;;;;;7.15;4.00;;;;;;;;;;5076130;28;20263;-67
2023/09/16 11:46:38;;;;;;;6.18;4.70;;;;;;;;;;5077792;28;20232;-67
2023/09/16 11:49:06;;;;;;;4.40;4.05;;;;;;;;;;5077548;28;20210;-67
2023/09/16 11:51:34;;;;;;;4.50;4.07;;;;;;;;;;5081159;28;20210;-67
2023/09/16 11:54:01;;;;;;;5.28;4.25;;;;;;;;;;5081739;28;20199;-67
2023/09/16 11:56:29;;;;;;;5.05;4.30;;;;;;;;;;5079752;28;20198;-67
2023/09/16 11:58:56;;;;;;;4.25;3.78;;;;;;;;;;5078259;28;20198;-67
2023/09/16 12:01:24;;;;;;;7.13;4.28;;;;;;;;;;5082902;28;20205;-67
2023/09/16 12:03:53;;;;;;;7.38;4.35;;;;;;;;;;5082687;28;20209;-67
2023/09/16 12:06:21;;;;;;;5.13;4.45;;;;;;;;;;5080092;28;20206;-67
2023/09/16 12:08:49;;;;;;;4.32;3.90;;;;;;;;;;5084073;28;20201;-67
2023/09/16 12:11:16;;;;;;;3.80;3.50;;;;;;;;;;5080787;28;20231;-67
2023/09/16 12:13:43;;;;;;;4.40;3.67;;;;;;;;;;5076521;28;20225;-67
2023/09/16 12:16:11;;;;;;;3.60;3.35;;;;;;;;;;5084454;28;20216;-67
2023/09/16 12:18:38;;;;;;;4.07;3.78;;;;;;;;;;5081952;28;20202;-67
2023/09/16 12:21:07;;;;;;;4.18;3.40;;;;;;;;;;5081530;28;20225;-67
2023/09/16 12:23:34;;;;;;;4.22;3.80;;;;;;;;;;5076887;28;20203;-67
2023/09/16 12:26:02;;;;;;;3.95;3.47;;;;;;;;;;5081948;28;20209;-67
2023/09/16 12:28:29;;;;;;;3.92;3.55;;;;;;;;;;5075525;28;20213;-67
2023/09/16 12:30:56;;;;;;;4.20;3.10;;;;;;;;;;5078620;28;20261;-67
2023/09/16 12:33:24;;;;;;;3.60;3.30;;;;;;;;;;5078384;28;20217;-67
2023/09/16 12:35:53;;;;;;;4.40;3.45;;;;;;;;;;5080019;28;20297;-67
2023/09/16 12:38:21;;;;;;;5.97;3.10;;;;;;;;;;5077296;28;20207;-66
2023/09/16 12:40:49;;;;;;;4.35;3.22;;;;;;;;;;5079458;28;20199;-63
2023/09/16 12:43:16;;;;;;;3.17;2.97;;;;;;;;;;5083442;28;20202;-63
2023/09/16 12:45:44;;;;;;;5.13;3.10;;;;;;;;;;5077669;28;20214;-63
2023/09/16 12:48:11;;;;;;;3.88;3.00;;;;;;;;;;5078121;28;20207;-63
2023/09/16 12:50:38;;;;;;;3.10;2.88;;;;;;;;;;5079863;28;20227;-64
2023/09/16 12:53:05;;;;;;;3.95;3.13;;;;;;;;;;5081557;28;20384;-64
2023/09/16 12:55:34;;;;;;;6.38;3.00;;;;;;;;;;5077740;28;20207;-63
2023/09/16 12:58:01;;;;;;;3.80;3.00;;;;;;;;;;5081166;28;20215;-63
2023/09/16 13:00:28;;;;;;;3.38;3.10;;;;;;;;;;5079961;28;20205;-63
2023/09/16 13:02:56;;;;;;;3.72;3.17;;;;;;;;;;5078775;28;20206;-63
2023/09/16 13:05:24;;;;;;;3.00;2.80;;;;;;;;;;5083710;28;20202;-64
2023/09/16 13:07:53;;;;;;;4.25;2.85;;;;;;;;;;5083120;28;20202;-63
2023/09/16 13:10:20;;;;;;;3.50;3.22;;;;;;;;;;5076273;28;20222;-63
2023/09/16 13:12:49;;;;;;;3.83;2.97;;;;;;;;;;5074703;28;20212;-63
2023/09/16 13:15:19;;;;;;;4.30;2.92;;;;;;;;;;5079213;28;20328;-63
2023/09/16 13:17:47;;;;;;;3.30;3.00;;;;;;;;;;5082387;28;20206;-63
2023/09/16 13:20:15;;;;;;;3.25;2.70;;;;;;;;;;5083151;28;20206;-62
2023/09/16 13:22:42;;;;;;;5.05;3.05;;;;;;;;;;5080488;28;20198;-63
2023/09/16 13:25:28;;;;;;;4.47;3.00;;;;;;;;;;5082320;28;20199;-63
2023/09/16 13:27:57;;;;;;;5.05;3.00;;;;;;;;;;5078966;28;20202;-63
2023/09/16 13:30:27;;;;;;;3.70;2.90;;;;;;;;;;5080008;28;20231;-63
2023/09/16 13:32:55;;;;;;;5.68;2.63;;;;;;;;;;5081673;28;20217;-63
2023/09/16 13:35:22;;;;;;;8.45;3.15;;;;;;;;;;5074942;28;20206;-63
2023/09/16 13:37:49;;;;;;;4.72;2.95;;;;;;;;;;5074452;28;20203;-63
2023/09/16 13:40:18;;;;;;;4.00;2.88;;;;;;;;;;5080753;28;20225;-63
2023/09/16 13:42:45;;;;;;;3.78;3.00;;;;;;;;;;5083432;28;20218;-63
2023/09/16 13:45:14;;;;;;;6.18;2.63;;;;;;;;;;5077418;28;20203;-63
2023/09/16 13:47:41;;;;;;;3.80;2.60;;;;;;;;;;5077731;28;20207;-62
2023/09/16 13:50:08;;;;;;;4.95;3.13;;;;;;;;;;5080532;28;20229;-63
2023/09/16 13:52:35;;;;;;;4.38;2.90;;;;;;;;;;5075968;28;20201;-63
2023/09/16 13:55:03;;;;;;;3.10;2.80;;;;;;;;;;5078591;28;20232;-63
2023/09/16 13:57:30;;;;;;;3.20;3.00;;;;;;;;;;5074997;28;20219;-62
2023/09/16 13:59:57;;;;;;;2.63;2.50;;;;;;;;;;5082141;28;20294;-62
2023/09/16 14:02:26;;;;;;;4.07;2.72;;;;;;;;;;5079102;28;20202;-62
2023/09/16 14:04:53;;;;;;;4.95;3.08;;;;;;;;;;5080145;28;20204;-63
2023/09/16 14:07:20;;;;;;;3.53;2.80;;;;;;;;;;5082112;28;20206;-64
2023/09/16 14:09:51;;;;;;;5.50;3.20;;;;;;;;;;5076753;28;20199;-63
2023/09/16 14:12:18;;;;;;;4.55;2.88;;;;;;;;;;5081341;28;20213;-63
2023/09/16 14:14:45;;;;;;;4.35;2.72;;;;;;;;;;5081578;28;20225;-63
2023/09/16 14:17:12;;;;;;;4.03;2.92;;;;;;;;;;5076487;28;20210;-62
2023/09/16 14:19:42;;;;;;;3.42;3.22;;;;;;;;;;5081925;28;20217;-62
2023/09/16 14:22:10;;;;;;;4.22;3.05;;;;;;;;;;5079481;28;20273;-62
2023/09/16 14:24:37;;;;;;;3.33;3.03;;;;;;;;;;5083853;28;20297;-63
2023/09/16 14:27:04;;;;;;;2.90;2.70;;;;;;;;;;5077723;28;20199;-62
2023/09/16 14:29:32;;;;;;;3.85;2.70;;;;;;;;;;5083037;28;20233;-62
2023/09/16 14:31:59;;;;;;;4.32;2.72;;;;;;;;;;5080160;28;20217;-63
2023/09/16 14:34:26;;;;;;;3.65;2.70;;;;;;;;;;5082498;28;20196;-62
2023/09/16 14:36:55;;;;;;;2.90;2.70;;;;;;;;;;5081994;28;20212;-63
2023/09/16 14:39:22;;;;;;;3.47;2.70;;;;;;;;;;5082855;28;20194;-62
2023/09/16 14:41:49;;;;;;;3.22;2.60;;;;;;;;;;5081368;28;20204;-62
2023/09/16 14:44:16;;;;;;;3.42;2.97;;;;;;;;;;5078685;28;20198;-62
2023/09/16 14:46:43;;;;;;;3.10;2.78;;;;;;;;;;5077568;28;20202;-62